Time;durP1;ratioP1;P1;durP2;ratioP2;P2;SDS_P1;SDS_P2;PMS_P1;PMS_P2;Temp;Humidity;BMP_temperature;BMP_pressure;BME280_temperature;BME280_humidity;BME280_pressure;Samples;Min_cycle;Max_cycle;Signal;HPM_P1;HPM_P2
2022/03/06 00:01:35;;;;;;;0.10;0.10;;;;;;;5.17;83.76;98969.25;4855776;29;20025;-80
2022/03/06 00:04:44;;;;;;;1.05;1.00;;;;;;;5.11;84.30;98965.72;4833352;29;20050;-81
2022/03/06 00:07:41;;;;;;;1.30;1.10;;;;;;;5.10;84.36;98968.59;4914595;29;20082;-81
2022/03/06 00:10:07;;;;;;;0.38;0.38;;;;;;;5.09;84.63;98969.63;5002243;23;20037;-80
2022/03/06 00:34:50;;;;;;;0.25;0.25;;;;;;;5.00;86.43;98969.25;4858965;29;20068;-81
2022/03/06 01:17:56;;;;;;;0.30;0.30;;;;;;;4.90;87.82;98947.88;5405931;23;20044;-80
2022/03/06 01:23:37;;;;;;;0.17;0.17;;;;;;;4.59;88.18;98892.56;5487203;23;20063;-83
2022/03/06 01:35:53;;;;;;;0.10;0.10;;;;;;;4.74;88.31;98926.44;4983989;23;20071;-78
2022/03/06 01:38:31;;;;;;;0.15;0.15;;;;;;;4.73;88.43;98924.03;4902696;29;20426;-81
2022/03/06 01:40:56;;;;;;;0.00;0.00;;;;;;;4.64;88.58;98927.06;4888207;29;20449;-80
2022/03/06 01:43:22;;;;;;;0.45;0.45;;;;;;;4.64;88.46;98928.94;4883361;29;20043;-77
2022/03/06 01:45:47;;;;;;;1.20;1.10;;;;;;;4.63;87.89;98928.13;4884146;29;20084;-80
2022/03/06 01:48:13;;;;;;;1.20;1.10;;;;;;;4.62;87.77;98929.16;4883623;29;20119;-79
2022/03/06 01:50:40;;;;;;;0.20;0.20;;;;;;;4.57;87.59;98936.22;4884416;29;20163;-79
2022/03/06 01:53:09;;;;;;;0.93;0.85;;;;;;;4.59;86.66;98921.69;4884032;29;20420;-79
2022/03/06 01:55:36;;;;;;;0.85;0.85;;;;;;;4.58;86.35;98943.94;4899583;29;20059;-78
2022/03/06 01:58:05;;;;;;;0.25;0.25;;;;;;;4.47;86.45;98936.84;4900469;29;20528;-77
2022/03/06 02:00:35;;;;;;;0.10;0.10;;;;;;;4.53;86.19;98933.25;4896593;29;20051;-77
2022/03/06 02:03:00;;;;;;;0.85;0.40;;;;;;;4.56;86.43;98937.25;4866300;29;20033;-77
2022/03/06 02:05:26;;;;;;;0.50;0.50;;;;;;;4.55;86.12;98933.78;4869709;29;20560;-78
2022/03/06 02:07:53;;;;;;;0.00;0.00;;;;;;;4.52;86.40;98928.16;4884739;29;20040;-78
2022/03/06 02:10:19;;;;;;;0.13;0.13;;;;;;;4.55;86.15;98933.00;4884753;29;20069;-78
2022/03/06 02:12:46;;;;;;;0.70;0.68;;;;;;;4.39;86.74;98927.44;4886749;29;20084;-78
2022/03/06 02:15:32;;;;;;;0.00;0.00;;;;;;;4.39;87.01;98930.09;4887600;29;20031;-80
2022/03/06 02:17:58;;;;;;;0.00;0.00;;;;;;;4.42;87.02;98928.81;4883016;29;20040;-77
2022/03/06 02:20:25;;;;;;;0.22;0.22;;;;;;;4.38;86.88;98931.16;4883571;29;20051;-78
2022/03/06 02:22:53;;;;;;;0.17;0.17;;;;;;;4.43;87.08;98925.13;4883544;29;20024;-77
2022/03/06 02:25:24;;;;;;;0.20;0.20;;;;;;;4.38;87.02;98941.75;4882392;29;20511;-76
2022/03/06 02:27:51;;;;;;;0.30;0.30;;;;;;;4.43;86.92;98931.22;4898788;29;20084;-75
2022/03/06 02:30:24;;;;;;;3.58;3.28;;;;;;;4.41;87.14;98929.88;4882178;29;20136;-75
2022/03/06 02:32:51;;;;;;;1.15;1.15;;;;;;;4.37;87.21;98931.38;4898416;29;20178;-75
2022/03/06 02:35:18;;;;;;;0.40;0.40;;;;;;;4.36;87.20;98937.69;4899300;29;20028;-76
2022/03/06 02:37:44;;;;;;;0.63;0.63;;;;;;;4.39;87.50;98940.66;4898751;29;20052;-76
2022/03/06 02:40:11;;;;;;;0.65;0.65;;;;;;;4.33;87.40;98934.50;4881741;29;20036;-75
2022/03/06 02:42:39;;;;;;;1.02;1.02;;;;;;;4.33;87.30;98942.44;4898676;29;20040;-75
2022/03/06 02:45:09;;;;;;;0.32;0.32;;;;;;;4.33;87.16;98934.50;4882068;29;20132;-77
2022/03/06 02:47:35;;;;;;;0.13;0.10;;;;;;;4.29;87.56;98927.25;4881445;29;20412;-78
2022/03/06 02:50:02;;;;;;;0.10;0.10;;;;;;;4.30;87.66;98928.88;4882717;29;20025;-78
2022/03/06 02:52:28;;;;;;;0.17;0.17;;;;;;;4.28;87.77;98947.63;4883097;29;20025;-78
2022/03/06 02:54:54;;;;;;;0.00;0.00;;;;;;;4.29;87.58;98951.09;4882193;29;20035;-77
2022/03/06 02:57:20;;;;;;;0.77;0.77;;;;;;;4.30;87.03;98940.25;4882643;29;20032;-78
2022/03/06 03:00:33;;;;;;;0.30;0.30;;;;;;;4.31;87.55;98946.38;4899684;29;20378;-81
2022/03/06 03:02:59;;;;;;;1.35;1.35;;;;;;;4.25;87.73;98936.72;4879694;29;20039;-79
2022/03/06 03:05:25;;;;;;;0.00;0.00;;;;;;;4.27;87.71;98942.56;4867287;29;20115;-80
2022/03/06 03:07:51;;;;;;;0.00;0.00;;;;;;;4.21;87.31;98954.94;4881412;29;20456;-79
2022/03/06 03:10:20;;;;;;;0.65;0.65;;;;;;;4.18;86.78;98936.06;4881905;29;20571;-80
2022/03/06 03:12:52;;;;;;;0.38;0.38;;;;;;;4.18;87.29;98938.72;4883713;29;20125;-80
2022/03/06 03:15:19;;;;;;;3.22;1.58;;;;;;;4.18;87.10;98949.31;4882438;29;20096;-78
2022/03/06 03:17:45;;;;;;;0.55;0.55;;;;;;;4.15;87.45;98950.56;4881407;29;20052;-77
2022/03/06 03:20:11;;;;;;;0.52;0.52;;;;;;;4.11;86.83;98973.25;4898732;29;20060;-78
2022/03/06 03:38:47;;;;;;;0.00;0.00;;;;;;;3.84;87.77;98957.91;4897825;29;20101;-80
2022/03/06 03:41:13;;;;;;;0.00;0.00;;;;;;;3.81;87.99;98951.25;4899313;29;20127;-79
2022/03/06 03:43:38;;;;;;;0.25;0.25;;;;;;;3.79;87.58;98958.59;4898426;29;20127;-77
2022/03/06 03:46:06;;;;;;;0.30;0.30;;;;;;;3.67;87.61;98963.94;4897943;29;20485;-77
2022/03/06 03:48:32;;;;;;;0.20;0.20;;;;;;;3.68;88.32;98949.63;4897273;29;20080;-77
2022/03/06 03:50:58;;;;;;;0.40;0.40;;;;;;;3.62;87.71;98969.09;4897857;29;20056;-79
2022/03/06 03:53:24;;;;;;;0.20;0.20;;;;;;;3.60;87.61;98965.88;4896733;29;20489;-77
2022/03/06 03:55:52;;;;;;;1.45;1.45;;;;;;;3.55;87.66;98964.97;4885641;29;20029;-78
2022/03/06 03:58:19;;;;;;;0.10;0.10;;;;;;;3.59;87.91;98964.28;4879170;29;20048;-79
2022/03/06 04:00:50;;;;;;;0.55;0.55;;;;;;;3.57;88.08;98970.84;4876644;29;20060;-77
2022/03/06 04:03:16;;;;;;;0.32;0.32;;;;;;;3.55;88.06;98957.03;4890684;29;20024;-78
2022/03/06 04:05:41;;;;;;;0.30;0.30;;;;;;;3.54;87.65;98964.19;4897437;29;20036;-79
2022/03/06 04:08:06;;;;;;;1.60;1.50;;;;;;;3.55;87.98;98971.03;4894290;29;20032;-79
2022/03/06 04:10:37;;;;;;;0.00;0.00;;;;;;;3.60;87.83;98959.78;4899377;29;20029;-83
2022/03/06 04:13:30;;;;;;;3.10;1.58;;;;;;;3.63;87.78;98954.84;4903637;29;20115;-83
2022/03/06 04:15:55;;;;;;;2.45;2.25;;;;;;;3.60;87.74;98957.13;4877205;29;20040;-80
2022/03/06 04:18:21;;;;;;;0.15;0.15;;;;;;;3.55;87.88;98951.75;4877051;29;20037;-80
2022/03/06 04:20:50;;;;;;;0.63;0.57;;;;;;;3.59;87.87;98956.34;4876911;29;20103;-81
2022/03/06 04:23:19;;;;;;;1.60;1.58;;;;;;;3.56;88.10;98961.28;4877792;29;20516;-81
2022/03/06 04:25:45;;;;;;;0.00;0.00;;;;;;;3.53;87.78;98966.00;4876809;29;20072;-81
2022/03/06 04:28:10;;;;;;;4.00;0.63;;;;;;;3.53;87.73;98954.63;4876912;29;20043;-81
2022/03/06 04:36:07;;;;;;;0.10;0.10;;;;;;;3.47;87.79;98974.84;5567609;23;20048;-80
2022/03/06 04:39:37;;;;;;;0.00;0.00;;;;;;;3.51;87.91;98965.41;4900101;29;20516;-80
2022/03/06 04:42:02;;;;;;;1.02;1.00;;;;;;;3.48;88.26;98965.09;4866720;29;20545;-78
2022/03/06 04:44:28;;;;;;;1.85;1.65;;;;;;;3.48;88.19;98962.47;4861986;29;20033;-78
2022/03/06 04:46:53;;;;;;;4.78;1.75;;;;;;;3.47;88.29;98966.13;4874124;29;20047;-78
2022/03/06 04:49:19;;;;;;;0.00;0.00;;;;;;;3.42;88.46;98966.00;4880436;29;20020;-78
2022/03/06 04:51:44;;;;;;;0.63;0.63;;;;;;;3.38;88.21;98960.38;4865055;29;20036;-78
2022/03/06 04:55:00;;;;;;;0.60;0.60;;;;;;;3.41;88.27;98949.34;4881749;29;20124;-83
2022/03/06 04:58:16;;;;;;;0.10;0.10;;;;;;;3.36;88.92;98955.31;4889191;29;20105;-82
2022/03/06 05:01:28;;;;;;;0.00;0.00;;;;;;;3.45;88.97;98953.13;4871563;29;20037;-82
2022/03/06 05:04:01;;;;;;;0.15;0.15;;;;;;;3.42;88.81;98953.59;4863107;29;20053;-82
2022/03/06 05:06:58;;;;;;;0.90;0.90;;;;;;;3.42;89.04;98961.53;4862123;29;20041;-82
2022/03/06 05:13:34;;;;;;;0.17;0.17;;;;;;;3.43;88.51;98949.09;4878907;29;20038;-87
2022/03/06 05:21:29;;;;;;;0.10;0.10;;;;;;;3.41;88.00;98953.84;4910687;29;20112;-83
2022/03/06 05:31:44;;;;;;;0.32;0.32;;;;;;;3.47;88.86;98966.91;4821094;29;20053;-80
2022/03/06 05:34:10;;;;;;;1.38;1.27;;;;;;;3.47;88.83;98964.28;4807716;29;20038;-79
2022/03/06 05:37:32;;;;;;;0.63;0.63;;;;;;;3.53;88.62;98971.28;4822644;29;20023;-80
2022/03/06 05:39:57;;;;;;;1.00;1.00;;;;;;;3.49;88.38;98967.50;4827411;29;20034;-77
2022/03/06 05:57:46;;;;;;;0.08;0.08;;;;;;;3.57;88.85;98968.97;5148662;23;20531;-81
2022/03/06 06:00:20;;;;;;;;;;;;;;;3.56;88.78;98974.50;4985662;23;20043;-82
2022/03/06 06:14:13;;;;;;;0.20;0.20;;;;;;;3.51;89.19;98969.91;5366815;23;20423;-78
2022/03/06 06:35:08;;;;;;;0.52;0.52;;;;;;;3.53;89.02;99003.00;4929522;29;20159;-83
2022/03/06 06:37:36;;;;;;;1.13;1.13;;;;;;;3.52;89.43;99008.53;4911316;29;20032;-79
2022/03/06 06:41:05;;;;;;;0.15;0.15;;;;;;;3.41;89.70;98998.78;4894834;29;20079;-82
2022/03/06 07:00:53;;;;;;;0.90;0.90;;;;;;;3.39;90.17;99016.69;4906088;29;20563;-81
2022/03/06 07:27:51;;;;;;;1.67;1.58;;;;;;;3.10;90.65;99016.53;5914448;23;20024;31
2022/03/06 07:30:23;;;;;;;0.40;0.40;;;;;;;3.00;91.40;98990.69;5236836;23;20116;-81
2022/03/06 07:32:54;;;;;;;0.45;0.45;;;;;;;2.95;90.53;99001.94;5103668;23;20120;-81
2022/03/06 07:40:46;;;;;;;0.35;0.32;;;;;;;2.85;90.80;99010.41;5813560;23;20175;-82
2022/03/06 07:51:35;;;;;;;1.10;1.10;;;;;;;2.97;90.80;99004.38;5617414;23;20023;31
2022/03/06 08:00:21;;;;;;;0.30;0.30;;;;;;;2.98;90.12;99001.47;5065601;23;20105;-84
2022/03/06 08:17:04;;;;;;;1.08;1.08;;;;;;;3.05;89.70;98996.09;5370953;23;20257;-82
2022/03/06 08:32:56;;;;;;;7.13;2.53;;;;;;;2.92;89.84;98991.00;5119498;23;20019;-86
2022/03/06 08:54:47;;;;;;;0.20;0.20;;;;;;;2.94;90.74;98995.06;5626059;23;20067;31
2022/03/06 09:03:34;;;;;;;0.28;0.28;;;;;;;2.89;89.73;98992.28;4990539;23;20060;-83
2022/03/06 09:06:31;;;;;;;0.95;0.95;;;;;;;2.59;90.54;98942.13;5600759;23;20056;-80
2022/03/06 09:08:57;;;;;;;0.00;0.00;;;;;;;2.89;90.49;98979.06;4890138;29;20031;-81
2022/03/06 09:11:38;;;;;;;0.80;0.80;;;;;;;2.93;90.61;98982.88;4861115;29;20030;-80
2022/03/06 09:21:19;;;;;;;0.25;0.25;;;;;;;2.86;90.27;98992.72;5388255;23;20017;-81
2022/03/06 09:24:06;;;;;;;1.38;1.38;;;;;;;2.84;89.71;98989.50;4884562;29;20128;-80
2022/03/06 09:26:31;;;;;;;0.80;0.80;;;;;;;2.88;90.91;98990.66;4860520;29;20033;-79
2022/03/06 09:28:57;;;;;;;0.10;0.10;;;;;;;2.90;90.31;99009.72;4861350;29;20028;-80
2022/03/06 09:31:22;;;;;;;3.00;2.80;;;;;;;2.96;90.14;98985.03;4862310;29;20057;-78
2022/03/06 09:33:48;;;;;;;1.83;1.75;;;;;;;2.92;89.75;98999.75;4878865;29;20512;-79
2022/03/06 09:36:13;;;;;;;1.10;1.10;;;;;;;2.94;89.91;98986.31;4860068;29;20109;-79
2022/03/06 09:38:38;;;;;;;0.40;0.40;;;;;;;2.92;89.50;99002.41;4857369;29;20478;-78
2022/03/06 09:41:16;;;;;;;0.00;0.00;;;;;;;2.83;89.86;98999.28;4880824;29;20457;-81
2022/03/06 09:44:36;;;;;;;0.22;0.22;;;;;;;2.79;90.60;98998.09;4888822;29;20021;-83
2022/03/06 09:51:21;;;;;;;0.50;0.50;;;;;;;3.01;90.61;98985.16;5110044;23;20122;-82
2022/03/06 09:53:48;;;;;;;3.25;2.72;;;;;;;2.98;90.14;98990.91;4927365;29;20050;-82
2022/03/06 09:56:14;;;;;;;0.47;0.47;;;;;;;2.96;90.14;98981.63;5327409;23;20030;-80
2022/03/06 09:59:01;;;;;;;0.65;0.65;;;;;;;2.99;90.72;98987.25;4876377;29;20057;-80
2022/03/06 10:01:46;;;;;;;1.15;0.98;;;;;;;2.98;90.54;98990.09;4993442;23;20049;-80
2022/03/06 10:04:53;;;;;;;0.20;0.20;;;;;;;2.95;89.70;98995.84;4963787;23;20052;-81
2022/03/06 10:07:31;;;;;;;0.30;0.28;;;;;;;2.97;89.88;98989.31;4905200;29;20117;-78
2022/03/06 10:09:58;;;;;;;0.00;0.00;;;;;;;3.13;89.91;98973.81;4895702;29;20041;-76
2022/03/06 10:57:11;;;;;;;2.05;0.80;;;;;;;3.49;88.18;98948.19;4857355;29;20082;-82
2022/03/06 11:00:21;;;;;;;2.60;0.98;;;;;;;3.55;88.68;98927.94;4845521;29;20034;-83
2022/03/06 11:03:19;;;;;;;0.00;0.00;;;;;;;3.52;88.31;98929.22;4840852;29;20062;-83
2022/03/06 11:05:46;;;;;;;0.00;0.00;;;;;;;3.55;88.85;98912.09;4829535;29;20040;-79
2022/03/06 11:10:49;;;;;;;0.05;0.05;;;;;;;3.59;88.88;98918.50;5129158;23;20061;-77
2022/03/06 11:13:14;;;;;;;0.08;0.08;;;;;;;3.52;88.60;98908.06;4878921;29;20040;-78
2022/03/06 11:15:43;;;;;;;0.65;0.65;;;;;;;3.57;88.39;98917.94;4881706;29;20045;-81
2022/03/06 11:18:12;;;;;;;0.00;0.00;;;;;;;3.65;88.30;98904.34;5389168;23;20297;-80
2022/03/06 11:20:40;;;;;;;2.15;1.45;;;;;;;3.71;88.44;98910.53;4900096;29;20101;-81
2022/03/06 11:23:14;;;;;;;0.10;0.10;;;;;;;3.63;87.74;98932.88;4889448;29;20515;-80
2022/03/06 11:25:57;;;;;;;0.17;0.17;;;;;;;3.65;87.49;98928.16;4886243;29;20036;-77
2022/03/06 11:28:58;;;;;;;0.00;0.00;;;;;;;3.71;88.05;98897.31;4879716;29;20037;-77
2022/03/06 11:31:24;;;;;;;1.50;0.77;;;;;;;3.64;86.83;98931.84;4861130;29;20045;-80
2022/03/06 11:34:03;;;;;;;0.20;0.20;;;;;;;3.77;87.53;98901.69;4878001;29;20051;-79
2022/03/06 11:36:32;;;;;;;0.00;0.00;;;;;;;3.74;88.03;98891.56;4882849;29;20028;-80
2022/03/06 11:38:57;;;;;;;1.05;1.05;;;;;;;3.75;88.36;98878.13;4878122;29;20032;-80
2022/03/06 11:41:25;;;;;;;0.45;0.45;;;;;;;3.78;88.47;98876.84;4885079;29;20039;-80
2022/03/06 11:44:36;;;;;;;8.55;1.50;;;;;;;3.79;87.84;98896.97;4902578;29;20493;-82
2022/03/06 11:47:40;;;;;;;1.05;1.05;;;;;;;3.80;87.86;98890.63;4877747;29;20050;-83
2022/03/06 11:52:42;;;;;;;3.95;2.25;;;;;;;3.71;88.17;98865.59;4967554;23;20052;-80
2022/03/06 11:55:37;;;;;;;0.10;0.10;;;;;;;3.85;87.80;98888.09;4903606;29;20120;-81
2022/03/06 11:58:02;;;;;;;0.10;0.10;;;;;;;3.76;87.25;98874.44;4906145;29;20048;-83
2022/03/06 12:00:33;;;;;;;8.40;1.40;;;;;;;3.76;87.42;98878.91;4904238;29;20028;-81
2022/03/06 12:03:08;;;;;;;0.00;0.00;;;;;;;3.75;87.43;98877.28;4919637;29;20035;-82
2022/03/06 12:05:46;;;;;;;0.00;0.00;;;;;;;3.75;87.49;98883.41;4925235;29;20036;-81
2022/03/06 12:08:13;;;;;;;0.45;0.45;;;;;;;3.77;87.31;98873.41;4901591;29;20082;-78
2022/03/06 12:10:42;;;;;;;1.77;1.67;;;;;;;3.78;87.92;98880.28;4894592;29;20036;-79
2022/03/06 12:13:20;;;;;;;0.22;0.22;;;;;;;3.82;87.90;98877.97;4888354;29;20032;-78
2022/03/06 12:16:27;;;;;;;2.33;0.88;;;;;;;3.75;88.17;98878.13;4882476;29;20504;-80
2022/03/06 12:19:03;;;;;;;0.25;0.25;;;;;;;3.71;88.41;98865.59;4897731;29;20059;-84
2022/03/06 12:21:37;;;;;;;0.00;0.00;;;;;;;3.74;88.48;98867.78;4883488;29;20400;-77
2022/03/06 12:24:11;;;;;;;2.90;2.00;;;;;;;3.76;88.27;98861.22;4898636;29;20120;-77
2022/03/06 12:26:46;;;;;;;0.15;0.15;;;;;;;3.68;88.37;98851.00;4913603;29;20034;-78
2022/03/06 12:29:45;;;;;;;0.20;0.20;;;;;;;3.69;88.57;98869.25;4918036;29;20043;-77
2022/03/06 12:32:26;;;;;;;0.25;0.25;;;;;;;3.67;88.43;98870.53;4917693;29;20488;-76
2022/03/06 12:34:56;;;;;;;0.00;0.00;;;;;;;3.65;88.42;98865.50;4899724;29;20130;-76
2022/03/06 12:37:31;;;;;;;0.00;0.00;;;;;;;3.64;88.58;98866.53;4895540;29;20403;-76
2022/03/06 12:39:57;;;;;;;1.55;1.45;;;;;;;3.66;89.22;98850.41;4910112;29;20025;-76
2022/03/06 12:42:29;;;;;;;0.00;0.00;;;;;;;3.67;89.27;98849.38;4897737;29;20405;-77
2022/03/06 12:44:57;;;;;;;0.00;0.00;;;;;;;3.69;89.15;98853.41;4910697;29;20029;-76
2022/03/06 12:47:23;;;;;;;0.55;0.55;;;;;;;3.72;89.27;98851.31;4916339;29;20507;-76
2022/03/06 12:49:49;;;;;;;0.00;0.00;;;;;;;3.68;89.23;98854.44;4901732;29;20035;-77
2022/03/06 12:52:17;;;;;;;0.80;0.65;;;;;;;3.64;88.33;98845.38;4904206;29;20051;-76
2022/03/06 12:54:45;;;;;;;0.20;0.20;;;;;;;3.73;88.47;98848.44;4907455;29;20119;-77
2022/03/06 12:57:10;;;;;;;2.20;2.10;;;;;;;3.72;88.89;98849.47;4897283;29;20404;-78
2022/03/06 12:59:40;;;;;;;0.32;0.32;;;;;;;3.65;89.14;98835.59;4884014;29;20115;-79
2022/03/06 13:02:07;;;;;;;2.10;0.63;;;;;;;3.61;88.58;98848.47;4897678;29;20453;-79
2022/03/06 13:04:34;;;;;;;1.00;0.77;;;;;;;3.52;87.60;98849.91;4890597;29;20411;-79
2022/03/06 13:07:00;;;;;;;0.20;0.20;;;;;;;3.61;88.29;98858.25;4897251;29;20028;-79
2022/03/06 13:09:29;;;;;;;0.10;0.10;;;;;;;3.54;88.49;98858.41;4881367;29;20984;-77
2022/03/06 13:11:55;;;;;;;;;;;;;;;3.55;88.48;98864.50;4902189;29;20030;-78
2022/03/06 13:14:37;;;;;;;2.20;2.10;;;;;;;3.43;88.71;98849.47;4903968;29;20006;-78
2022/03/06 13:17:08;;;;;;;0.43;0.43;;;;;;;3.47;88.82;98857.72;4896567;29;20449;-77
2022/03/06 13:19:42;;;;;;;0.30;0.30;;;;;;;3.40;88.82;98849.91;4917591;29;20028;-78
2022/03/06 13:22:14;;;;;;;0.00;0.00;;;;;;;3.31;88.76;98841.56;4902564;29;20088;-77
2022/03/06 13:24:48;;;;;;;0.00;0.00;;;;;;;3.47;89.14;98847.16;4887089;29;20024;-78
2022/03/06 13:27:19;;;;;;;0.10;0.10;;;;;;;3.35;89.05;98853.25;4896806;29;20032;-79
2022/03/06 13:30:17;;;;;;;0.00;0.00;;;;;;;3.33;88.82;98828.91;4882052;29;20112;-79
2022/03/06 13:32:57;;;;;;;0.00;0.00;;;;;;;3.26;89.00;98849.38;4885800;29;20044;-78
2022/03/06 13:35:39;;;;;;;0.00;0.00;;;;;;;3.25;89.37;98839.84;4909351;29;20044;-78
2022/03/06 13:38:23;;;;;;;0.00;0.00;;;;;;;3.23;89.10;98843.75;4922440;29;20043;-78
2022/03/06 13:40:55;;;;;;;0.52;0.52;;;;;;;3.20;89.55;98847.66;4903619;29;20024;-78
2022/03/06 13:43:36;;;;;;;0.00;0.00;;;;;;;3.18;89.39;98833.88;4891249;29;20119;-79
2022/03/06 13:46:02;;;;;;;1.45;1.35;;;;;;;3.18;89.00;98860.31;4904475;29;20071;-77
2022/03/06 13:48:35;;;;;;;0.22;0.22;;;;;;;3.15;89.24;98850.19;4905729;29;20586;-78
2022/03/06 13:51:00;;;;;;;0.10;0.10;;;;;;;3.20;89.22;98850.31;4909394;29;20032;-79
2022/03/06 13:54:14;;;;;;;0.10;0.10;;;;;;;3.21;89.15;98857.22;4899482;29;20397;-83
2022/03/06 13:56:41;;;;;;;0.10;0.10;;;;;;;3.22;89.33;98850.88;4906627;29;20512;-80
2022/03/06 13:59:55;;;;;;;0.00;0.00;;;;;;;3.27;89.20;98851.00;4898332;29;20075;-83
2022/03/06 14:05:40;;;;;;;0.10;0.10;;;;;;;3.26;88.82;98862.59;5694197;23;20063;-79
2022/03/06 14:08:18;;;;;;;0.00;0.00;;;;;;;3.24;89.30;98859.38;4906804;29;20127;-79
2022/03/06 14:10:48;;;;;;;0.00;0.00;;;;;;;3.31;88.62;98862.69;4907079;29;20032;-80
2022/03/06 14:13:42;;;;;;;0.10;0.10;;;;;;;3.41;88.39;98861.31;4921517;29;20063;-80
2022/03/06 14:16:10;;;;;;;0.60;0.60;;;;;;;3.28;88.29;98849.16;4894677;29;20037;-79
2022/03/06 14:18:45;;;;;;;0.00;0.00;;;;;;;3.28;89.10;98844.66;4879652;29;20036;-77
2022/03/06 14:21:18;;;;;;;2.10;2.00;;;;;;;3.30;89.40;98849.72;4898043;29;20059;-78
2022/03/06 14:23:48;;;;;;;0.20;0.20;;;;;;;3.22;88.84;98842.16;4904662;29;20034;-79
2022/03/06 14:26:16;;;;;;;0.20;0.20;;;;;;;3.19;89.36;98838.91;4888098;29;20496;-77
2022/03/06 14:28:54;;;;;;;0.00;0.00;;;;;;;3.21;89.35;98841.34;4911364;29;20036;-78
2022/03/06 14:31:21;;;;;;;0.08;0.08;;;;;;;3.19;90.09;98840.78;4891329;29;20043;-78
2022/03/06 14:33:46;;;;;;;0.00;0.00;;;;;;;3.22;90.21;98842.16;4902191;29;20040;-78
2022/03/06 14:36:13;;;;;;;0.00;0.00;;;;;;;3.29;90.20;98845.47;4912577;29;20032;-78
2022/03/06 14:38:38;;;;;;;0.00;0.00;;;;;;;3.35;90.32;98836.59;4885080;29;20100;-78
2022/03/06 14:41:05;;;;;;;0.00;0.00;;;;;;;3.41;90.29;98834.88;4899490;29;20126;-79
2022/03/06 14:43:31;;;;;;;0.00;0.00;;;;;;;3.38;90.03;98836.13;4900079;29;20028;-79
2022/03/06 14:45:56;;;;;;;0.05;0.05;;;;;;;3.46;89.92;98843.69;4885928;29;20047;-79
2022/03/06 14:48:22;;;;;;;0.35;0.35;;;;;;;3.43;90.16;98836.25;4894341;29;20496;-80
2022/03/06 14:50:47;;;;;;;0.03;0.03;;;;;;;3.38;89.44;98832.69;4891938;29;20043;-77
2022/03/06 14:53:13;;;;;;;0.00;0.00;;;;;;;3.38;89.41;98835.34;4897441;29;20594;-80
2022/03/06 14:55:39;;;;;;;0.43;0.43;;;;;;;3.33;89.52;98831.56;4887971;29;20102;-78
2022/03/06 14:58:04;;;;;;;0.00;0.00;;;;;;;3.30;89.92;98832.00;4899744;29;20028;-81
2022/03/06 15:00:30;;;;;;;0.05;0.05;;;;;;;3.30;89.31;98844.44;4896033;29;20036;-81
2022/03/06 15:02:56;;;;;;;0.00;0.00;;;;;;;3.32;89.75;98848.44;4881808;29;20036;-80
2022/03/06 15:05:21;;;;;;;0.00;0.00;;;;;;;3.28;89.69;98846.50;4881893;29;20040;-80
2022/03/06 15:07:47;;;;;;;0.10;0.10;;;;;;;3.27;88.88;98845.72;4883731;29;20033;-79
2022/03/06 15:10:12;;;;;;;0.50;0.47;;;;;;;3.19;89.55;98851.34;4899552;29;21928;-80
2022/03/06 15:12:38;;;;;;;0.00;0.00;;;;;;;3.16;89.45;98836.75;4883624;29;20029;-79
2022/03/06 15:15:04;;;;;;;0.52;0.52;;;;;;;3.19;89.47;98838.13;4885006;29;20029;-79
2022/03/06 15:17:30;;;;;;;0.00;0.00;;;;;;;3.11;89.17;98835.84;4884672;29;20068;-80
2022/03/06 15:19:56;;;;;;;0.38;0.38;;;;;;;3.14;89.34;98841.47;4883732;29;20504;-81
2022/03/06 15:22:21;;;;;;;0.00;0.00;;;;;;;3.04;89.10;98839.41;4880792;29;20052;-79
2022/03/06 15:24:47;;;;;;;0.30;0.30;;;;;;;2.96;89.32;98839.75;4882458;29;20036;-79
2022/03/06 15:27:13;;;;;;;0.00;0.00;;;;;;;2.88;89.34;98838.28;4880880;29;20143;-79
2022/03/06 15:29:38;;;;;;;2.60;2.42;;;;;;;2.85;89.23;98845.84;4881993;29;20120;-79
2022/03/06 15:32:04;;;;;;;0.10;0.10;;;;;;;2.83;89.28;98834.72;4896086;29;20068;-79
2022/03/06 15:34:30;;;;;;;0.10;0.10;;;;;;;2.79;88.93;98820.38;4889002;29;20072;-79
2022/03/06 15:36:55;;;;;;;0.00;0.00;;;;;;;2.73;89.05;98824.72;4882565;29;20508;-79
2022/03/06 15:39:21;;;;;;;3.15;2.17;;;;;;;2.74;88.93;98830.81;4881182;29;20535;-80
2022/03/06 15:41:46;;;;;;;0.00;0.00;;;;;;;2.69;89.68;98842.84;4880538;29;20541;-78
2022/03/06 15:44:12;;;;;;;0.10;0.10;;;;;;;2.66;89.15;98832.75;4881262;29;20039;-79
2022/03/06 15:46:38;;;;;;;2.50;2.30;;;;;;;2.62;89.28;98834.25;4880423;29;20040;-78
2022/03/06 15:49:04;;;;;;;0.10;0.10;;;;;;;2.54;89.39;98832.75;4882485;29;20396;-77
2022/03/06 15:51:30;;;;;;;0.10;0.10;;;;;;;2.57;89.94;98831.50;4897018;29;20055;-77
2022/03/06 15:53:56;;;;;;;4.55;0.75;;;;;;;2.50;89.88;98842.16;4896752;29;20036;-78
2022/03/06 15:56:21;;;;;;;0.00;0.00;;;;;;;2.52;90.13;98848.00;4880874;29;20556;-79
2022/03/06 15:58:47;;;;;;;0.30;0.30;;;;;;;2.50;90.10;98844.81;4880497;29;20047;-79
2022/03/06 16:01:13;;;;;;;1.17;1.17;;;;;;;2.47;90.29;98841.81;4879355;29;20033;-77
2022/03/06 16:03:38;;;;;;;0.20;0.20;;;;;;;2.39;90.50;98841.13;4897933;29;20029;-78
2022/03/06 16:06:04;;;;;;;0.10;0.10;;;;;;;2.34;90.76;98843.63;4891593;29;20055;-78
2022/03/06 16:08:29;;;;;;;0.20;0.20;;;;;;;2.38;91.29;98843.97;4900020;29;20067;-79
2022/03/06 16:10:55;;;;;;;0.43;0.43;;;;;;;2.30;91.43;98842.47;4867868;29;20037;-76
2022/03/06 16:13:20;;;;;;;0.10;0.10;;;;;;;2.24;91.73;98843.38;4881592;29;20036;-76
2022/03/06 16:15:46;;;;;;;0.00;0.00;;;;;;;2.27;91.80;98848.22;4897180;29;20397;-78
2022/03/06 16:18:11;;;;;;;0.00;0.00;;;;;;;2.30;92.01;98860.16;4896343;29;20039;-77
2022/03/06 16:20:37;;;;;;;0.00;0.00;;;;;;;2.32;92.35;98848.34;4899910;29;20087;-76
2022/03/06 16:23:02;;;;;;;0.65;0.65;;;;;;;2.34;92.33;98848.09;4895793;29;20088;-77
2022/03/06 16:25:28;;;;;;;0.10;0.10;;;;;;;2.40;92.03;98858.56;4899873;29;20092;-76
2022/03/06 16:27:53;;;;;;;0.00;0.00;;;;;;;2.49;91.50;98855.56;4895839;29;20036;-78
2022/03/06 16:30:19;;;;;;;0.00;0.00;;;;;;;2.51;92.03;98850.88;4896078;29;20036;-76
2022/03/06 16:32:45;;;;;;;0.00;0.00;;;;;;;2.55;91.58;98855.47;4895718;29;20039;-76
2022/03/06 16:35:10;;;;;;;1.02;1.02;;;;;;;2.56;91.52;98856.28;4895612;29;20508;-77
2022/03/06 16:37:37;;;;;;;0.00;0.00;;;;;;;2.49;91.42;98845.84;4895844;29;20036;-78
2022/03/06 16:40:04;;;;;;;0.38;0.38;;;;;;;2.52;91.75;98858.56;4899710;29;20067;-75
2022/03/06 16:42:30;;;;;;;0.33;0.33;;;;;;;2.49;91.92;98859.03;4896271;29;20485;-75
2022/03/06 16:44:56;;;;;;;1.33;1.27;;;;;;;2.42;92.13;98860.97;4879092;29;20343;-77
2022/03/06 16:47:22;;;;;;;0.10;0.10;;;;;;;2.36;91.88;98861.88;4895155;29;20629;-77
2022/03/06 16:49:47;;;;;;;0.00;0.00;;;;;;;2.36;92.07;98860.03;4878643;29;20537;-77
2022/03/06 16:52:13;;;;;;;0.00;0.00;;;;;;;2.37;92.04;98863.50;4909421;29;20024;-76
2022/03/06 16:54:41;;;;;;;0.38;0.38;;;;;;;2.32;91.85;98861.53;4895590;29;20127;-76
2022/03/06 16:57:09;;;;;;;0.00;0.00;;;;;;;2.29;91.75;98861.97;4894378;29;20173;-76
2022/03/06 16:59:35;;;;;;;0.00;0.00;;;;;;;2.26;91.83;98866.88;4895223;29;20095;-76
2022/03/06 17:02:00;;;;;;;0.70;0.70;;;;;;;2.27;91.56;98866.69;4895892;29;20119;-77
2022/03/06 17:04:26;;;;;;;0.00;0.00;;;;;;;2.24;91.19;98877.69;4878213;29;20037;-78
2022/03/06 17:06:51;;;;;;;0.00;0.00;;;;;;;2.26;91.60;98869.53;4894766;29;20056;-77
2022/03/06 17:09:17;;;;;;;0.00;0.00;;;;;;;2.26;91.47;98872.16;4895677;29;20547;-76
2022/03/06 17:11:42;;;;;;;0.00;0.00;;;;;;;2.20;91.21;98860.69;4896149;29;20029;-76
2022/03/06 17:14:08;;;;;;;0.00;0.00;;;;;;;2.18;91.38;98865.38;4896556;29;20405;-77
2022/03/06 17:16:33;;;;;;;0.00;0.00;;;;;;;2.13;91.21;98863.41;4879424;29;20040;-78
2022/03/06 17:19:00;;;;;;;0.00;0.00;;;;;;;2.11;91.01;98870.75;4878654;29;20125;-77
2022/03/06 17:21:25;;;;;;;0.00;0.00;;;;;;;2.12;91.21;98874.19;4883904;29;20078;-78
2022/03/06 17:23:51;;;;;;;0.00;0.00;;;;;;;2.10;91.30;98870.97;4895929;29;20130;-78
2022/03/06 17:26:16;;;;;;;0.30;0.30;;;;;;;2.05;91.20;98879.56;4896087;29;20075;-77
2022/03/06 17:28:42;;;;;;;0.00;0.00;;;;;;;2.10;91.45;98879.72;4895933;29;20039;-77
2022/03/06 17:31:09;;;;;;;0.00;0.00;;;;;;;2.04;91.67;98872.69;4879583;29;20386;-78
2022/03/06 17:33:35;;;;;;;0.00;0.00;;;;;;;2.09;91.73;98886.00;4879024;29;20485;-77
2022/03/06 17:36:00;;;;;;;0.00;0.00;;;;;;;2.10;91.53;98889.44;4895272;29;20037;-78
2022/03/06 17:38:26;;;;;;;0.00;0.00;;;;;;;2.10;91.40;98887.63;4889975;29;20032;-76
2022/03/06 17:40:55;;;;;;;0.00;0.00;;;;;;;2.19;91.37;98904.72;4897753;29;20045;-76
2022/03/06 17:43:21;;;;;;;;;;;;;;;2.17;91.14;98903.34;4895377;29;20520;-76